createdAt,value
2024-01-07T00:00:44.507Z,12.50
2024-01-07T00:03:11.132Z,12.37
2024-01-07T00:05:38.670Z,12.30
2024-01-07T00:08:05.725Z,12.50
2024-01-07T00:10:32.209Z,13.93
2024-01-07T00:12:58.801Z,13.33
2024-01-07T00:15:28.233Z,13.43
2024-01-07T00:17:55.046Z,14.00
2024-01-07T00:20:21.755Z,13.83
2024-01-07T00:22:48.598Z,13.13
2024-01-07T00:25:15.176Z,14.20
2024-01-07T00:27:42.283Z,14.27
2024-01-07T00:30:08.958Z,15.57
2024-01-07T00:32:35.532Z,13.20
2024-01-07T00:35:02.324Z,13.37
2024-01-07T00:37:28.867Z,13.67
2024-01-07T00:39:55.381Z,14.67
2024-01-07T00:42:22.216Z,14.23
2024-01-07T00:44:48.939Z,13.90
2024-01-07T00:47:15.387Z,12.47
2024-01-07T00:49:42.673Z,11.77
2024-01-07T00:52:09.920Z,12.20
2024-01-07T00:54:36.526Z,11.27
2024-01-07T00:57:03.417Z,11.13
2024-01-07T00:59:30.921Z,10.93
2024-01-07T01:01:57.449Z,10.40
2024-01-07T01:04:24.052Z,10.73
2024-01-07T01:06:50.720Z,10.37
2024-01-07T01:09:17.273Z,10.67
2024-01-07T01:11:43.752Z,10.77
2024-01-07T01:14:10.288Z,10.80
2024-01-07T01:16:36.747Z,10.60
2024-01-07T01:19:03.289Z,10.87
2024-01-07T01:21:29.912Z,11.13
2024-01-07T01:23:56.460Z,10.90
2024-01-07T01:26:23.021Z,11.30
2024-01-07T01:28:49.449Z,11.17
2024-01-07T01:31:16.585Z,11.67
2024-01-07T01:33:43.266Z,11.43
2024-01-07T01:36:10.116Z,10.90
2024-01-07T01:38:36.595Z,11.70
2024-01-07T01:41:03.085Z,11.03
2024-01-07T01:43:30.253Z,11.70
2024-01-07T01:45:57.825Z,11.43
2024-01-07T01:48:26.453Z,12.17
2024-01-07T01:50:55.202Z,11.70
2024-01-07T01:53:21.692Z,11.13
2024-01-07T01:55:48.475Z,11.87
2024-01-07T01:58:14.956Z,10.97
2024-01-07T02:00:41.862Z,11.50
2024-01-07T02:03:08.799Z,11.33
2024-01-07T02:05:35.464Z,11.13
2024-01-07T02:08:02.078Z,11.03
2024-01-07T02:10:35.203Z,11.47
2024-01-07T02:13:02.019Z,11.37
2024-01-07T02:15:28.547Z,11.50
2024-01-07T02:17:55.309Z,11.10
2024-01-07T02:20:21.890Z,11.10
2024-01-07T02:22:48.505Z,11.83
2024-01-07T02:25:14.977Z,11.23
2024-01-07T02:27:41.614Z,11.23
2024-01-07T02:30:09.011Z,12.80
2024-01-07T02:32:37.333Z,13.27
2024-01-07T02:35:04.108Z,13.63
2024-01-07T02:37:30.851Z,13.07
2024-01-07T02:40:01.355Z,12.97
2024-01-07T02:42:28.962Z,13.63
2024-01-07T02:44:55.488Z,13.00
2024-01-07T02:47:22.033Z,13.20
2024-01-07T02:49:48.815Z,13.50
2024-01-07T02:52:15.408Z,12.93
2024-01-07T02:54:41.887Z,12.77
2024-01-07T02:57:08.409Z,14.13
2024-01-07T02:59:35.100Z,13.47
2024-01-07T03:02:01.667Z,12.80
2024-01-07T03:04:28.131Z,13.73
2024-01-07T03:06:54.589Z,12.30
2024-01-07T03:09:21.230Z,11.17
2024-01-07T03:11:47.656Z,10.97
2024-01-07T03:14:14.111Z,11.50
2024-01-07T03:16:40.532Z,11.30
2024-01-07T03:19:07.114Z,11.30
2024-01-07T03:21:33.636Z,11.23
2024-01-07T03:24:00.151Z,11.90
2024-01-07T03:26:31.315Z,11.80
2024-01-07T03:29:00.770Z,11.80
2024-01-07T03:31:27.796Z,10.57
2024-01-07T03:33:54.661Z,11.17
2024-01-07T03:36:21.288Z,10.70
2024-01-07T03:38:47.741Z,11.17
2024-01-07T03:41:21.600Z,11.00
2024-01-07T03:43:49.079Z,11.23
2024-01-07T03:46:17.244Z,11.83
2024-01-07T03:48:44.472Z,11.57
2024-01-07T03:51:11.140Z,11.70
2024-01-07T03:53:37.635Z,11.00
2024-01-07T03:56:04.682Z,11.53
2024-01-07T03:58:31.144Z,11.67
2024-01-07T04:00:57.701Z,10.13
2024-01-07T04:03:24.680Z,10.70
2024-01-07T04:05:51.295Z,11.37
2024-01-07T04:08:17.863Z,10.30
2024-01-07T04:10:44.476Z,10.87
2024-01-07T04:13:11.124Z,11.10
2024-01-07T04:15:37.748Z,11.53
2024-01-07T04:18:05.340Z,11.10
2024-01-07T04:20:32.278Z,10.47
2024-01-07T04:22:58.806Z,10.70
2024-01-07T04:25:25.388Z,10.07
2024-01-07T04:27:51.837Z,10.00
2024-01-07T04:30:18.471Z,9.63
2024-01-07T04:32:45.031Z,10.87
2024-01-07T04:35:11.553Z,11.43
2024-01-07T04:37:38.787Z,10.43
2024-01-07T04:40:06.027Z,10.70
2024-01-07T04:42:32.635Z,10.23
2024-01-07T04:44:59.186Z,10.57
2024-01-07T04:47:35.292Z,10.20
2024-01-07T04:50:02.303Z,10.57
2024-01-07T04:52:28.922Z,10.17
2024-01-07T04:54:56.492Z,10.27
2024-01-07T04:57:23.115Z,11.10
2024-01-07T04:59:50.767Z,11.43
2024-01-07T05:02:17.978Z,11.13
2024-01-07T05:04:44.588Z,11.27
2024-01-07T05:07:11.188Z,11.90
2024-01-07T05:09:37.738Z,12.27
2024-01-07T05:12:04.469Z,13.17
2024-01-07T05:14:30.928Z,12.83
2024-01-07T05:16:57.523Z,12.93
2024-01-07T05:19:24.612Z,12.90
2024-01-07T05:21:51.140Z,13.40
2024-01-07T05:24:17.647Z,13.03
2024-01-07T05:26:45.946Z,12.20
2024-01-07T05:29:13.257Z,13.57
2024-01-07T05:31:41.102Z,13.20
2024-01-07T05:34:08.438Z,13.27
2024-01-07T05:36:35.058Z,11.90
2024-01-07T05:39:01.892Z,13.00
2024-01-07T05:41:28.406Z,12.60
2024-01-07T05:43:55.031Z,12.80
2024-01-07T05:46:21.801Z,13.67
2024-01-07T05:48:50.236Z,12.10
2024-01-07T05:51:17.945Z,12.07
2024-01-07T05:53:45.557Z,13.83
2024-01-07T05:56:12.395Z,12.73
2024-01-07T05:58:38.938Z,13.70
2024-01-07T06:01:06.432Z,13.40
2024-01-07T06:03:33.222Z,13.43
2024-01-07T06:05:59.908Z,14.00
2024-01-07T06:08:27.506Z,13.97
2024-01-07T06:10:54.057Z,13.30
2024-01-07T06:13:20.568Z,12.90
2024-01-07T06:15:47.403Z,13.40
2024-01-07T06:18:13.975Z,14.47
2024-01-07T06:20:40.654Z,13.70
2024-01-07T06:23:07.375Z,15.33
2024-01-07T06:25:33.880Z,14.53
2024-01-07T06:28:00.444Z,15.03
2024-01-07T06:30:27.146Z,15.13
2024-01-07T06:32:54.403Z,13.93
2024-01-07T06:35:20.970Z,15.20
2024-01-07T06:37:47.462Z,14.67
2024-01-07T06:40:14.403Z,15.23
2024-01-07T06:42:42.099Z,14.67
2024-01-07T06:45:09.164Z,15.70
2024-01-07T06:47:35.969Z,15.07
2024-01-07T06:50:02.776Z,14.30
2024-01-07T06:52:29.263Z,14.57
2024-01-07T06:54:55.893Z,14.37
2024-01-07T06:57:22.347Z,14.50
2024-01-07T06:59:48.938Z,14.80
2024-01-07T07:02:15.406Z,14.10
2024-01-07T07:04:42.001Z,14.53
2024-01-07T07:07:08.603Z,15.00
2024-01-07T07:09:35.801Z,14.73
2024-01-07T07:12:02.334Z,13.77
2024-01-07T07:14:28.824Z,12.77
2024-01-07T07:16:55.252Z,14.30
2024-01-07T07:19:21.803Z,13.50
2024-01-07T07:21:48.350Z,16.20
2024-01-07T07:24:14.809Z,15.00
2024-01-07T07:26:42.229Z,15.37
2024-01-07T07:29:10.784Z,14.50
2024-01-07T07:31:37.793Z,14.70
2024-01-07T07:34:05.399Z,14.37
2024-01-07T07:36:32.542Z,13.63
2024-01-07T07:38:59.085Z,14.47
2024-01-07T07:41:25.565Z,14.27
2024-01-07T07:43:52.074Z,13.67
2024-01-07T07:46:18.645Z,15.27
2024-01-07T07:48:45.237Z,13.87
2024-01-07T07:51:11.893Z,14.97
2024-01-07T07:53:41.395Z,13.80
2024-01-07T07:56:08.409Z,14.27
2024-01-07T07:58:35.054Z,14.03
2024-01-07T08:01:01.727Z,13.50
2024-01-07T08:03:28.437Z,12.57
2024-01-07T08:05:55.002Z,12.23
2024-01-07T08:08:21.841Z,11.87
2024-01-07T08:10:48.248Z,13.10
2024-01-07T08:13:15.023Z,12.30
2024-01-07T08:15:41.542Z,11.47
2024-01-07T08:18:08.137Z,12.07
2024-01-07T08:20:34.665Z,11.07
2024-01-07T08:23:01.445Z,11.00
2024-01-07T08:25:28.278Z,11.47
2024-01-07T08:27:54.774Z,11.37
2024-01-07T08:30:21.391Z,11.00
2024-01-07T08:32:48.004Z,10.80
2024-01-07T08:35:16.418Z,10.23
2024-01-07T08:37:45.542Z,10.90
2024-01-07T08:40:14.525Z,10.20
2024-01-07T08:42:41.117Z,10.13
2024-01-07T08:45:08.318Z,9.17
2024-01-07T08:47:40.792Z,9.77
2024-01-07T08:50:09.718Z,9.77
2024-01-07T08:52:36.680Z,10.17
2024-01-07T08:55:06.841Z,9.57
2024-01-07T08:57:33.957Z,9.07
2024-01-07T09:00:00.474Z,9.37
2024-01-07T09:02:27.509Z,9.57
2024-01-07T09:04:53.977Z,9.07
2024-01-07T09:07:20.596Z,8.83
2024-01-07T09:09:47.189Z,9.00
2024-01-07T09:12:13.668Z,9.40
2024-01-07T09:14:40.247Z,9.50
2024-01-07T09:17:07.205Z,9.20
2024-01-07T09:19:33.829Z,9.07
2024-01-07T09:22:00.542Z,9.30
2024-01-07T09:24:27.092Z,9.17
2024-01-07T09:26:53.574Z,9.30
2024-01-07T09:29:20.125Z,10.33
2024-01-07T09:31:46.763Z,9.93
2024-01-07T09:34:13.450Z,9.90
2024-01-07T09:36:39.994Z,10.63
2024-01-07T09:39:07.383Z,9.83
2024-01-07T09:41:34.840Z,10.23
2024-01-07T09:44:01.657Z,11.33
2024-01-07T09:46:30.335Z,9.80
2024-01-07T09:48:57.230Z,9.10
2024-01-07T09:51:24.349Z,9.40
2024-01-07T09:53:57.899Z,9.33
2024-01-07T09:56:26.654Z,10.23
2024-01-07T09:58:53.164Z,9.50
2024-01-07T10:01:20.059Z,8.87
2024-01-07T10:03:47.033Z,10.90
2024-01-07T10:06:14.175Z,8.87
2024-01-07T10:08:40.772Z,9.03
2024-01-07T10:11:10.417Z,9.33
2024-01-07T10:13:37.312Z,9.77
2024-01-07T10:16:04.017Z,9.73
2024-01-07T10:18:32.466Z,8.80
2024-01-07T10:21:04.957Z,9.40
2024-01-07T10:23:31.908Z,8.80
2024-01-07T10:26:01.523Z,9.03
2024-01-07T10:28:29.853Z,9.33
2024-01-07T10:30:56.451Z,9.50
2024-01-07T10:33:24.903Z,10.50
2024-01-07T10:36:02.394Z,11.17
2024-01-07T10:38:29.082Z,9.20
2024-01-07T10:40:58.168Z,9.37
2024-01-07T10:43:25.224Z,9.57
2024-01-07T10:45:52.512Z,8.87
2024-01-07T10:48:22.273Z,8.00
2024-01-07T10:50:51.478Z,9.93
2024-01-07T10:53:23.912Z,8.20
2024-01-07T10:56:01.066Z,8.40
2024-01-07T10:58:27.706Z,7.73
2024-01-07T11:00:55.516Z,8.00
2024-01-07T11:03:57.516Z,9.53
2024-01-07T11:06:56.652Z,8.43
2024-01-07T11:09:36.436Z,11.50
2024-01-07T11:12:03.463Z,9.83
2024-01-07T11:14:36.800Z,8.87
2024-01-07T11:17:04.257Z,8.40
2024-01-07T11:19:31.463Z,7.93
2024-01-07T11:22:24.661Z,8.40
2024-01-07T11:24:52.474Z,8.67
2024-01-07T11:27:19.049Z,8.43
2024-01-07T11:29:45.556Z,8.23
2024-01-07T11:32:17.984Z,8.63
2024-01-07T11:34:45.660Z,8.63
2024-01-07T11:37:15.098Z,8.60
2024-01-07T11:39:46.090Z,8.47
2024-01-07T11:42:13.592Z,9.23
2024-01-07T11:44:56.561Z,7.87
2024-01-07T11:47:24.995Z,8.17
2024-01-07T11:49:51.838Z,8.43
2024-01-07T11:52:19.797Z,8.77
2024-01-07T11:54:47.865Z,8.67
2024-01-07T11:57:15.127Z,9.20
2024-01-07T11:59:44.148Z,8.47
2024-01-07T12:02:12.066Z,8.63
2024-01-07T12:04:38.595Z,9.23
2024-01-07T12:07:05.829Z,8.70
2024-01-07T12:09:32.458Z,8.67
2024-01-07T12:11:59.288Z,8.77
2024-01-07T12:14:26.996Z,8.37
2024-01-07T12:16:53.694Z,8.80
2024-01-07T12:19:21.368Z,7.93
2024-01-07T12:21:48.972Z,8.60
2024-01-07T12:24:15.697Z,8.70
2024-01-07T12:26:42.492Z,8.37
2024-01-07T12:29:11.037Z,7.77
2024-01-07T12:31:37.635Z,8.20
2024-01-07T12:34:04.585Z,7.73
2024-01-07T12:36:33.117Z,8.33
2024-01-07T12:39:00.066Z,7.93
2024-01-07T12:41:26.733Z,7.70
2024-01-07T12:43:53.254Z,7.80
2024-01-07T12:46:19.898Z,7.97
2024-01-07T12:48:46.478Z,8.00
2024-01-07T12:51:13.063Z,7.40
2024-01-07T12:53:39.657Z,7.30
2024-01-07T12:56:06.470Z,7.03
2024-01-07T12:58:33.154Z,7.23
2024-01-07T13:00:59.965Z,7.37
2024-01-07T13:03:27.095Z,6.77
2024-01-07T13:05:53.852Z,7.17
2024-01-07T13:08:23.101Z,7.40
2024-01-07T13:10:50.114Z,41.80
2024-01-07T13:13:16.769Z,7.97
2024-01-07T13:15:43.851Z,7.73
2024-01-07T13:18:13.074Z,7.23
2024-01-07T13:20:42.670Z,9.47
2024-01-07T13:23:09.187Z,7.13
2024-01-07T13:25:36.245Z,7.33
2024-01-07T13:28:02.985Z,7.72
2024-01-07T13:30:30.895Z,6.63
2024-01-07T13:32:57.976Z,7.23
2024-01-07T13:35:25.938Z,7.23
2024-01-07T13:37:52.771Z,7.73
2024-01-07T13:40:20.079Z,8.07
2024-01-07T13:42:47.104Z,8.43
2024-01-07T13:45:14.594Z,8.60
2024-01-07T13:47:41.592Z,9.00
2024-01-07T13:50:10.823Z,8.43
2024-01-07T13:52:37.626Z,9.00
2024-01-07T13:55:04.740Z,9.30
2024-01-07T13:57:31.891Z,10.00
2024-01-07T13:59:58.654Z,10.03
2024-01-07T14:02:25.212Z,9.97
2024-01-07T14:04:52.761Z,9.83
2024-01-07T14:07:21.958Z,10.47
2024-01-07T14:09:48.570Z,10.47
2024-01-07T14:12:15.303Z,10.70
2024-01-07T14:14:41.787Z,11.53
2024-01-07T14:17:08.365Z,10.97
2024-01-07T14:19:35.142Z,10.20
2024-01-07T14:22:02.091Z,11.80
2024-01-07T14:24:28.656Z,11.87
2024-01-07T14:26:57.522Z,12.50
2024-01-07T14:29:28.490Z,12.37
2024-01-07T14:31:55.298Z,13.20
2024-01-07T14:34:22.091Z,13.27
2024-01-07T14:36:48.695Z,14.03
2024-01-07T14:39:15.786Z,14.13
2024-01-07T14:41:42.868Z,13.80
2024-01-07T14:44:12.469Z,14.27
2024-01-07T14:46:40.079Z,14.33
2024-01-07T14:49:08.406Z,14.70
2024-01-07T14:51:35.513Z,15.53
2024-01-07T14:54:02.541Z,14.60
2024-01-07T14:56:29.077Z,15.53
2024-01-07T14:58:55.982Z,14.87
2024-01-07T15:01:22.870Z,14.53
2024-01-07T15:03:49.500Z,16.27
2024-01-07T15:06:16.375Z,14.53
2024-01-07T15:08:46.175Z,15.57
2024-01-07T15:11:12.730Z,15.97
2024-01-07T15:13:40.768Z,16.13
2024-01-07T15:16:07.889Z,15.80
2024-01-07T15:18:38.163Z,16.60
2024-01-07T15:21:06.073Z,16.10
2024-01-07T15:23:32.657Z,16.53
2024-01-07T15:25:59.075Z,17.23
2024-01-07T15:28:25.781Z,17.43
2024-01-07T15:30:52.465Z,17.70
2024-01-07T15:33:19.345Z,17.73
2024-01-07T15:35:45.880Z,18.20
2024-01-07T15:38:12.396Z,17.53
2024-01-07T15:40:38.892Z,18.00
2024-01-07T15:43:05.469Z,18.63
2024-01-07T15:45:32.069Z,16.80
2024-01-07T15:47:58.594Z,17.03
2024-01-07T15:50:25.066Z,16.43
2024-01-07T15:52:51.610Z,23.77
2024-01-07T15:55:19.560Z,23.40
2024-01-07T15:57:46.496Z,23.33
2024-01-07T16:00:14.649Z,22.10
2024-01-07T16:02:41.292Z,15.40
2024-01-07T16:05:08.710Z,15.53
2024-01-07T16:07:35.437Z,15.43
2024-01-07T16:10:02.066Z,15.20
2024-01-07T16:12:31.549Z,23.97
2024-01-07T16:14:58.743Z,15.40
2024-01-07T16:17:25.654Z,18.70
2024-01-07T16:19:52.561Z,13.60
2024-01-07T16:22:19.330Z,13.67
2024-01-07T16:24:46.138Z,15.27
2024-01-07T16:27:13.711Z,13.17
2024-01-07T16:29:45.218Z,12.73
2024-01-07T16:32:16.085Z,13.90
2024-01-07T16:34:43.200Z,13.03
2024-01-07T16:37:09.889Z,12.30
2024-01-07T16:39:36.824Z,13.80
2024-01-07T16:42:03.689Z,13.87
2024-01-07T16:44:30.343Z,14.10
2024-01-07T16:46:57.021Z,15.10
2024-01-07T16:51:53.265Z,15.50
2024-01-07T16:54:19.786Z,16.37
2024-01-07T16:56:46.380Z,15.60
2024-01-07T16:59:15.623Z,14.43
2024-01-07T17:01:44.188Z,16.17
2024-01-07T17:04:10.778Z,16.67
2024-01-07T17:06:37.560Z,16.37
2024-01-07T17:09:04.667Z,16.97
2024-01-07T17:11:31.360Z,17.83
2024-01-07T17:13:57.932Z,17.70
2024-01-07T17:16:29.046Z,16.43
2024-01-07T17:18:55.802Z,16.57
2024-01-07T17:21:22.642Z,16.13
2024-01-07T17:23:52.406Z,16.20
2024-01-07T17:26:24.880Z,13.70
2024-01-07T17:28:51.554Z,14.83
2024-01-07T17:31:24.332Z,14.83
2024-01-07T17:33:50.943Z,15.43
2024-01-07T17:36:17.498Z,14.23
2024-01-07T17:38:44.337Z,14.03
2024-01-07T17:41:11.815Z,12.37
2024-01-07T17:43:38.555Z,12.53
2024-01-07T17:46:10.773Z,13.23
2024-01-07T17:48:38.979Z,13.53
2024-01-07T17:51:05.904Z,14.93
2024-01-07T17:53:32.578Z,14.83
2024-01-07T17:55:59.205Z,14.43
2024-01-07T17:58:25.691Z,13.30
2024-01-07T18:00:52.446Z,13.77
2024-01-07T18:03:18.989Z,13.00
2024-01-07T18:05:45.834Z,13.70
2024-01-07T18:08:13.154Z,13.10
2024-01-07T18:10:39.709Z,14.83
2024-01-07T18:13:06.754Z,13.77
2024-01-07T18:15:34.015Z,14.67
2024-01-07T18:18:03.372Z,16.10
2024-01-07T18:20:30.735Z,13.67
2024-01-07T18:22:57.276Z,11.73
2024-01-07T18:25:23.725Z,12.60
2024-01-07T18:27:50.656Z,13.93
2024-01-07T18:30:17.186Z,12.67
2024-01-07T18:32:44.372Z,14.20
2024-01-07T18:35:10.962Z,12.07
2024-01-07T18:37:37.929Z,11.37
2024-01-07T18:40:04.984Z,12.07
2024-01-07T18:42:32.008Z,11.73
2024-01-07T18:44:58.563Z,12.63
2024-01-07T18:47:26.788Z,12.23
2024-01-07T18:49:53.466Z,12.47
2024-01-07T18:52:19.969Z,12.17
2024-01-07T18:54:46.447Z,9.67
2024-01-07T18:57:17.979Z,10.20
2024-01-07T18:59:44.679Z,9.63
2024-01-07T19:02:11.345Z,13.60
2024-01-07T19:04:40.968Z,10.73
2024-01-07T19:07:07.479Z,10.43
2024-01-07T19:09:34.041Z,9.70
2024-01-07T19:12:00.565Z,11.07
2024-01-07T19:14:27.065Z,9.40
2024-01-07T19:16:53.622Z,10.50
2024-01-07T19:19:20.144Z,9.73
2024-01-07T19:21:47.127Z,8.80
2024-01-07T19:24:13.594Z,9.33
2024-01-07T19:26:44.028Z,7.97
2024-01-07T19:29:12.137Z,8.67
2024-01-07T19:31:39.150Z,7.37
2024-01-07T19:34:05.817Z,8.37
2024-01-07T19:36:33.931Z,8.03
2024-01-07T19:39:06.547Z,8.50
2024-01-07T19:41:38.044Z,9.63
2024-01-07T19:44:05.336Z,7.43
2024-01-07T19:46:35.246Z,7.20
2024-01-07T19:49:03.705Z,7.33
2024-01-07T19:51:30.897Z,6.33
2024-01-07T19:53:58.256Z,10.17
2024-01-07T19:56:25.142Z,11.50
2024-01-07T19:58:52.369Z,6.40
2024-01-07T20:01:19.126Z,6.30
2024-01-07T20:03:46.068Z,5.77
2024-01-07T20:06:14.587Z,5.43
2024-01-07T20:08:44.212Z,5.70
2024-01-07T20:11:25.470Z,4.70
2024-01-07T20:13:52.980Z,4.70
2024-01-07T20:16:21.244Z,5.60
2024-01-07T20:18:52.699Z,5.17
2024-01-07T20:21:24.310Z,5.20
2024-01-07T20:23:55.633Z,4.93
2024-01-07T20:26:23.434Z,5.50
2024-01-07T20:28:54.593Z,5.20
2024-01-07T20:31:22.293Z,4.50
2024-01-07T20:33:49.873Z,4.07
2024-01-07T20:36:16.685Z,3.83
2024-01-07T20:38:43.990Z,4.80
2024-01-07T20:41:11.261Z,5.00
2024-01-07T20:43:38.591Z,4.80
2024-01-07T20:46:14.003Z,4.50
2024-01-07T20:48:40.870Z,4.07
2024-01-07T20:51:08.550Z,4.57
2024-01-07T20:53:36.503Z,4.40
2024-01-07T20:56:03.390Z,4.50
2024-01-07T20:58:31.720Z,4.20
2024-01-07T21:01:00.552Z,3.90
2024-01-07T21:03:27.438Z,4.30
2024-01-07T21:05:54.419Z,4.90
2024-01-07T21:08:21.621Z,4.20
2024-01-07T21:10:48.795Z,4.07
2024-01-07T21:13:15.788Z,4.17
2024-01-07T21:15:42.764Z,3.77
2024-01-07T21:18:09.384Z,4.40
2024-01-07T21:20:36.792Z,5.33
2024-01-07T21:23:04.854Z,4.90
2024-01-07T21:25:33.517Z,5.87
2024-01-07T21:28:00.228Z,4.53
2024-01-07T21:30:26.973Z,4.03
2024-01-07T21:32:54.028Z,7.70
2024-01-07T21:35:20.863Z,4.50
2024-01-07T21:37:47.697Z,3.63
2024-01-07T21:40:16.311Z,3.90
2024-01-07T21:42:42.817Z,13.50
2024-01-07T21:45:10.881Z,4.77
2024-01-07T21:47:38.878Z,5.97
2024-01-07T21:50:06.158Z,11.20
2024-01-07T21:52:32.761Z,9.77
2024-01-07T21:54:59.647Z,12.00
2024-01-07T21:57:26.732Z,16.03
2024-01-07T21:59:53.440Z,10.57
2024-01-07T22:02:20.381Z,14.83
2024-01-07T22:04:47.856Z,6.97
2024-01-07T22:07:14.688Z,10.67
2024-01-07T22:09:41.161Z,9.07
2024-01-07T22:12:07.769Z,14.67
2024-01-07T22:14:34.397Z,5.17
2024-01-07T22:17:00.889Z,24.30
2024-01-07T22:19:27.527Z,6.53
2024-01-07T22:21:54.013Z,22.17
2024-01-07T22:24:23.866Z,5.53
2024-01-07T22:26:50.555Z,12.83
2024-01-07T22:29:19.086Z,4.23
2024-01-07T22:31:45.671Z,15.60
2024-01-07T22:34:12.584Z,11.50
2024-01-07T22:36:42.088Z,9.13
2024-01-07T22:39:11.533Z,11.47
2024-01-07T22:41:45.512Z,4.57
2024-01-07T22:44:16.063Z,13.57
2024-01-07T22:46:49.801Z,5.07
2024-01-07T22:49:17.640Z,9.60
2024-01-07T22:51:45.690Z,5.70
2024-01-07T22:54:12.743Z,5.57
2024-01-07T22:56:44.249Z,5.60
2024-01-07T22:59:14.702Z,16.77
2024-01-07T23:01:41.822Z,4.90
2024-01-07T23:04:09.121Z,13.80
2024-01-07T23:06:38.103Z,16.23
2024-01-07T23:09:06.424Z,15.00
2024-01-07T23:11:33.819Z,11.23
2024-01-07T23:14:00.894Z,12.10
2024-01-07T23:16:27.572Z,10.97
2024-01-07T23:18:55.701Z,11.67
2024-01-07T23:21:24.702Z,5.00
2024-01-07T23:23:52.026Z,6.27
2024-01-07T23:26:18.661Z,6.70
2024-01-07T23:28:45.269Z,6.30
2024-01-07T23:31:12.126Z,12.07
2024-01-07T23:33:39.180Z,9.50
2024-01-07T23:36:08.098Z,11.07
2024-01-07T23:38:36.303Z,11.37
2024-01-07T23:41:06.533Z,6.77
2024-01-07T23:43:33.994Z,15.10
2024-01-07T23:46:00.762Z,10.40
2024-01-07T23:48:29.032Z,11.17
2024-01-07T23:50:55.649Z,4.80
2024-01-07T23:53:22.278Z,5.30
2024-01-07T23:55:49.125Z,3.97
2024-01-07T23:58:15.563Z,3.90
